createdAt,value
2022-08-07T00:01:43.669Z,5.93
2022-08-07T00:04:06.695Z,6.88
2022-08-07T00:06:36.857Z,6.35
2022-08-07T00:09:16.235Z,8.60
2022-08-07T00:11:53.874Z,6.00
2022-08-07T00:14:22.481Z,6.88
2022-08-07T00:16:52.777Z,7.30
2022-08-07T00:19:21.382Z,8.05
2022-08-07T00:21:57.101Z,8.65
2022-08-07T00:24:31.718Z,8.68
2022-08-07T00:27:07.438Z,8.60
2022-08-07T00:29:37.058Z,11.20
2022-08-07T00:32:05.743Z,7.88
2022-08-07T00:34:35.605Z,9.05
2022-08-07T00:37:05.099Z,8.68
2022-08-07T00:39:36.268Z,8.52
2022-08-07T00:42:11.909Z,8.95
2022-08-07T00:44:41.385Z,11.23
2022-08-07T00:47:15.795Z,9.10
2022-08-07T00:50:19.917Z,9.32
2022-08-07T00:52:43.817Z,13.88
2022-08-07T00:55:17.532Z,10.95
2022-08-07T00:58:03.370Z,8.98
2022-08-07T01:00:31.474Z,8.40
2022-08-07T01:02:59.483Z,9.98
2022-08-07T01:05:29.725Z,9.55
2022-08-07T01:07:56.978Z,8.65
2022-08-07T01:10:24.285Z,9.63
2022-08-07T01:12:53.894Z,11.05
2022-08-07T01:15:35.739Z,11.07
2022-08-07T01:18:16.801Z,10.00
2022-08-07T01:20:59.299Z,11.88
2022-08-07T01:23:35.458Z,10.02
2022-08-07T01:26:13.685Z,7.90
2022-08-07T01:28:48.605Z,9.27
2022-08-07T01:31:21.992Z,8.73
2022-08-07T01:33:56.084Z,7.45
2022-08-07T01:36:33.514Z,10.70
2022-08-07T01:39:09.953Z,15.85
2022-08-07T01:42:07.220Z,8.43
2022-08-07T01:44:31.119Z,10.43
2022-08-07T01:47:00.990Z,10.55
2022-08-07T01:49:31.875Z,9.57
2022-08-07T01:52:04.939Z,9.35
2022-08-07T01:54:38.965Z,8.18
2022-08-07T01:57:24.415Z,9.90
2022-08-07T02:00:12.935Z,9.85
2022-08-07T02:03:18.786Z,13.70
2022-08-07T02:06:00.008Z,9.30
2022-08-07T02:08:38.008Z,12.00
2022-08-07T02:11:08.958Z,13.45
2022-08-07T02:13:57.768Z,15.93
2022-08-07T02:16:33.323Z,16.80
2022-08-07T02:19:05.669Z,11.93
2022-08-07T02:21:57.783Z,15.20
2022-08-07T02:24:29.481Z,13.80
2022-08-07T02:27:01.195Z,14.15
2022-08-07T02:29:30.719Z,13.60
2022-08-07T02:32:00.967Z,15.25
2022-08-07T02:34:30.185Z,16.38
2022-08-07T02:37:08.094Z,14.38
2022-08-07T02:39:43.435Z,16.75
2022-08-07T02:42:16.602Z,14.00
2022-08-07T02:44:48.965Z,16.90
2022-08-07T02:47:23.486Z,14.50
2022-08-07T02:49:58.492Z,13.32
2022-08-07T02:53:06.148Z,16.27
2022-08-07T02:56:02.191Z,16.58
2022-08-07T02:58:33.445Z,14.98
2022-08-07T03:01:04.139Z,16.73
2022-08-07T03:03:49.479Z,14.32
2022-08-07T03:06:25.877Z,16.73
2022-08-07T03:09:02.771Z,17.23
2022-08-07T03:11:32.901Z,16.02
2022-08-07T03:14:06.974Z,17.50
2022-08-07T03:16:35.926Z,15.65
2022-08-07T03:19:07.553Z,17.30
2022-08-07T03:21:36.080Z,19.20
2022-08-07T03:24:17.585Z,18.70
2022-08-07T03:26:58.935Z,18.55
2022-08-07T03:29:36.852Z,21.35
2022-08-07T03:32:12.986Z,17.02
2022-08-07T03:34:47.186Z,17.77
2022-08-07T03:37:37.436Z,19.75
2022-08-07T03:40:22.743Z,20.75
2022-08-07T03:42:51.756Z,22.65
2022-08-07T03:45:30.836Z,21.98
2022-08-07T03:48:10.145Z,25.98
2022-08-07T03:50:39.852Z,19.83
2022-08-07T03:53:11.342Z,22.92
2022-08-07T03:55:46.097Z,22.50
2022-08-07T03:59:05.757Z,20.25
2022-08-07T04:01:14.591Z,23.88
2022-08-07T04:03:53.361Z,23.88
2022-08-07T04:06:37.740Z,21.85
2022-08-07T04:09:15.890Z,24.42
2022-08-07T04:12:23.653Z,24.05
2022-08-07T04:14:38.892Z,24.80
2022-08-07T04:17:16.448Z,21.73
2022-08-07T04:19:52.703Z,22.05
2022-08-07T04:22:27.611Z,25.83
2022-08-07T04:25:01.628Z,20.05
2022-08-07T04:27:35.916Z,25.45
2022-08-07T04:30:21.265Z,24.73
2022-08-07T04:33:07.461Z,20.95
2022-08-07T04:35:39.634Z,21.42
2022-08-07T04:38:14.798Z,23.08
2022-08-07T04:40:52.218Z,25.33
2022-08-07T04:44:12.715Z,18.50
2022-08-07T04:47:03.946Z,22.13
2022-08-07T04:50:03.692Z,19.45
2022-08-07T04:52:57.450Z,20.90
2022-08-07T04:58:13.689Z,21.20
2022-08-07T04:59:16.722Z,22.17
2022-08-07T05:01:42.801Z,20.00
2022-08-07T05:04:21.312Z,19.15
2022-08-07T05:06:59.135Z,21.58
2022-08-07T05:09:52.785Z,19.13
2022-08-07T05:13:01.443Z,16.17
2022-08-07T05:15:47.548Z,15.15
2022-08-07T05:18:29.592Z,16.00
2022-08-07T05:21:04.023Z,14.27
2022-08-07T05:23:39.783Z,15.43
2022-08-07T05:26:25.136Z,14.27
2022-08-07T05:29:04.215Z,12.25
2022-08-07T05:31:38.554Z,12.02
2022-08-07T05:34:14.994Z,12.60
2022-08-07T05:36:52.922Z,14.20
2022-08-07T05:40:13.990Z,10.73
2022-08-07T05:42:15.211Z,12.10
2022-08-07T05:45:11.843Z,12.23
2022-08-07T05:48:01.406Z,12.45
2022-08-07T05:50:34.172Z,10.38
2022-08-07T05:53:03.132Z,11.07
2022-08-07T05:56:03.420Z,10.73
2022-08-07T05:58:36.674Z,13.10
2022-08-07T06:01:10.379Z,12.02
2022-08-07T06:03:56.392Z,11.77
2022-08-07T06:06:29.335Z,10.98
2022-08-07T06:08:57.708Z,10.25
2022-08-07T06:11:26.480Z,8.90
2022-08-07T06:14:12.620Z,9.35
2022-08-07T06:16:50.310Z,9.25
2022-08-07T06:19:52.423Z,12.70
2022-08-07T06:22:14.461Z,9.80
2022-08-07T06:24:58.398Z,10.27
2022-08-07T06:28:00.498Z,8.20
2022-08-07T06:30:31.945Z,9.15
2022-08-07T06:33:15.650Z,16.17
2022-08-07T06:35:47.965Z,8.85
2022-08-07T06:38:30.364Z,10.10
2022-08-07T06:41:01.119Z,6.93
2022-08-07T06:43:39.533Z,8.48
2022-08-07T06:46:15.379Z,10.85
2022-08-07T06:48:58.316Z,7.10
2022-08-07T06:51:33.449Z,6.93
2022-08-07T06:55:28.774Z,5.43
2022-08-07T06:56:58.972Z,5.85
2022-08-07T07:00:13.312Z,4.85
2022-08-07T07:02:53.391Z,3.35
2022-08-07T07:06:02.408Z,4.05
2022-08-07T07:08:12.336Z,5.20
2022-08-07T07:10:47.510Z,5.28
2022-08-07T07:13:55.680Z,3.67
2022-08-07T07:16:30.257Z,5.22
2022-08-07T07:19:33.969Z,7.05
2022-08-07T07:22:05.392Z,5.50
2022-08-07T07:24:56.784Z,3.85
2022-08-07T07:27:35.606Z,4.95
2022-08-07T07:30:32.759Z,3.97
2022-08-07T07:33:07.945Z,4.47
2022-08-07T07:35:43.786Z,5.40
2022-08-07T07:38:26.056Z,4.30
2022-08-07T07:41:02.390Z,5.47
2022-08-07T07:43:47.955Z,4.38
2022-08-07T07:46:38.066Z,4.68
2022-08-07T07:50:34.519Z,3.85
2022-08-07T07:52:00.276Z,3.50
2022-08-07T07:54:28.716Z,6.30
2022-08-07T07:56:57.694Z,5.00
2022-08-07T07:59:52.029Z,6.70
2022-08-07T08:02:34.230Z,3.67
2022-08-07T08:05:14.213Z,4.75
2022-08-07T08:07:59.734Z,6.18
2022-08-07T08:10:37.654Z,5.72
2022-08-07T08:13:10.463Z,5.80
2022-08-07T08:15:58.574Z,4.78
2022-08-07T08:18:28.717Z,6.37
2022-08-07T08:20:58.061Z,3.90
2022-08-07T08:23:46.133Z,4.10
2022-08-07T08:26:34.139Z,5.82
2022-08-07T08:29:04.126Z,4.90
2022-08-07T08:31:59.164Z,3.22
2022-08-07T08:34:33.766Z,3.42
2022-08-07T08:37:09.782Z,3.20
2022-08-07T08:39:55.068Z,2.80
2022-08-07T08:42:52.475Z,3.60
2022-08-07T08:45:58.452Z,4.85
2022-08-07T08:48:51.511Z,3.50
2022-08-07T08:51:49.939Z,3.83
2022-08-07T08:54:24.175Z,6.68
2022-08-07T08:56:53.913Z,4.22
2022-08-07T08:59:42.129Z,3.90
2022-08-07T09:02:40.460Z,2.38
2022-08-07T09:05:43.371Z,2.60
2022-08-07T09:08:55.425Z,1.90
2022-08-07T09:11:50.862Z,7.10
2022-08-07T09:14:33.005Z,1.80
2022-08-07T09:17:24.668Z,2.10
2022-08-07T09:20:35.589Z,3.50
2022-08-07T09:24:33.898Z,4.95
2022-08-07T09:26:17.165Z,3.72
2022-08-07T09:30:05.063Z,4.18
2022-08-07T09:31:54.714Z,4.35
2022-08-07T09:34:28.514Z,4.20
2022-08-07T09:37:47.840Z,5.43
2022-08-07T09:40:35.485Z,4.32
2022-08-07T09:44:03.044Z,6.93
2022-08-07T09:47:52.126Z,5.20
2022-08-07T09:50:18.148Z,7.43
2022-08-07T09:52:56.611Z,5.00
2022-08-07T09:56:03.341Z,6.43
2022-08-07T09:58:38.727Z,5.57
2022-08-07T10:01:57.752Z,5.63
2022-08-07T10:04:45.964Z,4.78
2022-08-07T10:07:39.770Z,3.95
2022-08-07T10:14:01.428Z,4.43
2022-08-07T10:17:14.299Z,5.72
2022-08-07T10:20:22.111Z,5.25
2022-08-07T10:23:17.076Z,4.47
2022-08-07T10:26:07.345Z,2.75
2022-08-07T10:28:35.821Z,4.35
2022-08-07T10:31:31.502Z,2.45
2022-08-07T10:34:56.322Z,2.78
2022-08-07T10:38:09.643Z,4.57
2022-08-07T10:41:06.133Z,5.07
2022-08-07T10:43:47.984Z,2.80
2022-08-07T10:46:27.330Z,7.00
2022-08-07T10:49:10.453Z,3.13
2022-08-07T10:52:02.320Z,4.18
2022-08-07T10:54:53.513Z,3.83
2022-08-07T10:57:42.417Z,4.03
2022-08-07T11:00:40.539Z,4.90
2022-08-07T11:03:02.415Z,4.28
2022-08-07T11:06:02.929Z,5.68
2022-08-07T11:08:52.804Z,2.55
2022-08-07T11:11:51.944Z,6.68
2022-08-07T11:14:46.452Z,5.50
2022-08-07T11:17:46.157Z,4.55
2022-08-07T11:20:47.056Z,4.28
2022-08-07T11:23:30.665Z,7.13
2022-08-07T11:26:33.623Z,4.90
2022-08-07T11:29:13.360Z,12.35
2022-08-07T11:32:29.275Z,7.07
2022-08-07T11:35:02.566Z,6.35
2022-08-07T11:37:58.337Z,5.43
2022-08-07T11:40:51.946Z,5.35
2022-08-07T11:43:54.744Z,6.60
2022-08-07T11:46:33.926Z,4.78
2022-08-07T11:50:18.664Z,7.25
2022-08-07T11:52:38.024Z,7.30
2022-08-07T11:56:15.743Z,3.95
2022-08-07T11:58:16.719Z,5.38
2022-08-07T12:01:02.485Z,4.30
2022-08-07T12:03:46.368Z,4.97
2022-08-07T12:06:39.808Z,4.70
2022-08-07T12:09:41.761Z,4.55
2022-08-07T12:12:12.442Z,5.15
2022-08-07T12:15:03.250Z,6.40
2022-08-07T12:17:59.661Z,8.93
2022-08-07T12:20:45.807Z,4.05
2022-08-07T12:24:07.541Z,4.50
2022-08-07T12:26:50.601Z,3.33
2022-08-07T12:29:53.730Z,5.20
2022-08-07T12:32:49.079Z,3.20
2022-08-07T12:35:17.495Z,2.60
2022-08-07T12:38:09.600Z,3.25
2022-08-07T12:40:48.516Z,5.43
2022-08-07T12:44:01.814Z,5.97
2022-08-07T12:46:26.369Z,4.93
2022-08-07T12:49:25.499Z,3.45
2022-08-07T12:52:19.157Z,4.28
2022-08-07T12:55:16.399Z,4.03
2022-08-07T12:58:00.820Z,4.93
2022-08-07T13:01:02.985Z,6.28
2022-08-07T13:04:02.030Z,5.40
2022-08-07T13:06:54.488Z,5.13
2022-08-07T13:10:21.395Z,3.22
2022-08-07T13:13:07.713Z,6.18
2022-08-07T13:15:46.524Z,10.55
2022-08-07T13:18:34.252Z,3.97
2022-08-07T13:21:50.407Z,4.50
2022-08-07T13:24:29.331Z,4.80
2022-08-07T13:27:12.800Z,6.65
2022-08-07T13:29:47.746Z,6.60
2022-08-07T13:32:59.598Z,5.93
2022-08-07T13:36:00.233Z,7.85
2022-08-07T13:38:56.158Z,6.55
2022-08-07T13:41:47.326Z,3.15
2022-08-07T13:44:19.481Z,4.95
2022-08-07T13:46:59.442Z,4.38
2022-08-07T13:50:34.003Z,4.95
2022-08-07T13:52:25.879Z,4.18
2022-08-07T13:55:00.766Z,3.78
2022-08-07T13:57:32.139Z,9.75
2022-08-07T14:00:08.568Z,5.45
2022-08-07T14:02:57.416Z,8.57
2022-08-07T14:05:37.493Z,8.25
2022-08-07T14:08:08.075Z,6.10
2022-08-07T14:10:42.024Z,7.75
2022-08-07T14:15:50.864Z,6.10
2022-08-07T14:18:30.690Z,4.30
2022-08-07T14:22:02.317Z,7.00
2022-08-07T14:24:08.957Z,5.95
2022-08-07T14:26:51.565Z,9.15
2022-08-07T14:30:08.175Z,5.72
2022-08-07T14:32:15.215Z,3.97
2022-08-07T14:34:45.932Z,5.00
2022-08-07T14:37:16.954Z,4.78
2022-08-07T14:40:17.552Z,3.47
2022-08-07T14:43:54.910Z,4.63
2022-08-07T14:45:46.444Z,7.68
2022-08-07T14:48:19.616Z,6.68
2022-08-07T14:50:56.255Z,6.10
2022-08-07T14:54:05.797Z,7.68
2022-08-07T14:56:15.829Z,6.18
2022-08-07T14:59:02.010Z,4.38
2022-08-07T15:01:42.691Z,4.10
2022-08-07T15:04:21.824Z,4.00
2022-08-07T15:06:53.343Z,6.43
2022-08-07T15:09:58.929Z,3.75
2022-08-07T15:18:41.563Z,6.43
2022-08-07T15:25:13.407Z,6.63
2022-08-07T15:27:09.930Z,3.90
2022-08-07T15:32:39.047Z,4.32
2022-08-07T15:35:12.551Z,10.68
2022-08-07T15:38:17.903Z,7.82
2022-08-07T15:46:31.921Z,7.53
2022-08-07T15:49:14.641Z,4.47
2022-08-07T15:54:39.640Z,12.60
2022-08-07T15:57:28.124Z,8.63
2022-08-07T16:00:04.507Z,5.00
2022-08-07T16:02:46.772Z,5.57
2022-08-07T16:05:20.503Z,8.45
2022-08-07T16:08:31.591Z,5.60
2022-08-07T16:10:47.146Z,5.22
2022-08-07T16:13:57.918Z,4.80
2022-08-07T16:16:47.682Z,4.93
2022-08-07T16:19:58.850Z,10.35
2022-08-07T16:22:33.948Z,5.55
2022-08-07T16:25:23.056Z,5.72
2022-08-07T16:30:07.298Z,5.53
2022-08-07T16:31:51.407Z,5.75
2022-08-07T16:34:39.198Z,7.85
2022-08-07T16:38:06.537Z,5.68
2022-08-07T16:40:28.869Z,6.32
2022-08-07T16:44:02.280Z,6.68
2022-08-07T16:47:04.726Z,4.35
2022-08-07T16:50:20.391Z,7.05
2022-08-07T16:52:55.402Z,5.15
2022-08-07T16:55:47.308Z,5.63
2022-08-07T16:59:10.250Z,6.00
2022-08-07T17:01:41.362Z,7.60
2022-08-07T17:04:57.839Z,5.65
2022-08-07T17:07:55.264Z,8.65
2022-08-07T17:10:38.344Z,6.07
2022-08-07T17:13:41.732Z,5.38
2022-08-07T17:16:36.045Z,6.93
2022-08-07T17:19:15.487Z,4.65
2022-08-07T17:21:51.773Z,4.72
2022-08-07T17:24:38.475Z,4.63
2022-08-07T17:27:19.611Z,9.55
2022-08-07T17:30:14.322Z,8.95
2022-08-07T17:34:09.670Z,5.18
2022-08-07T17:36:20.505Z,3.65
2022-08-07T17:39:10.520Z,4.43
2022-08-07T17:42:11.727Z,6.65
2022-08-07T17:44:45.383Z,6.90
2022-08-07T17:47:42.126Z,7.43
2022-08-07T17:50:19.058Z,7.15
2022-08-07T17:52:58.955Z,6.38
2022-08-07T17:55:56.555Z,6.97
2022-08-07T17:58:46.384Z,5.70
2022-08-07T18:01:21.980Z,4.22
2022-08-07T18:04:07.949Z,9.35
2022-08-07T18:07:19.355Z,8.68
2022-08-07T18:10:04.459Z,7.90
2022-08-07T18:13:06.911Z,7.55
2022-08-07T18:16:02.417Z,6.60
2022-08-07T18:21:04.366Z,9.50
2022-08-07T18:21:57.895Z,9.02
2022-08-07T18:24:36.608Z,9.07
2022-08-07T18:27:38.795Z,5.82
2022-08-07T18:30:31.296Z,11.30
2022-08-07T18:33:26.992Z,5.93
2022-08-07T18:35:58.273Z,10.18
2022-08-07T18:38:59.710Z,5.32
2022-08-07T18:41:45.096Z,6.22
2022-08-07T18:48:01.041Z,7.80
2022-08-07T18:50:59.180Z,7.75
2022-08-07T18:53:44.023Z,5.15
2022-08-07T18:56:30.751Z,7.93
2022-08-07T18:59:47.041Z,5.65
2022-08-07T19:02:52.626Z,9.23
2022-08-07T19:06:02.166Z,7.57
2022-08-07T19:08:33.641Z,7.03
2022-08-07T19:11:35.779Z,7.50
2022-08-07T19:14:19.912Z,7.80
2022-08-07T19:17:06.662Z,9.80
2022-08-07T19:20:03.563Z,5.40
2022-08-07T19:23:18.553Z,7.85
2022-08-07T19:26:22.769Z,5.93
2022-08-07T19:30:57.065Z,6.07
2022-08-07T19:31:57.791Z,9.95
2022-08-07T19:34:33.724Z,6.78
2022-08-07T19:37:09.657Z,7.05
2022-08-07T19:39:57.414Z,5.68
2022-08-07T19:42:40.064Z,6.28
2022-08-07T19:46:04.698Z,6.13
2022-08-07T19:48:18.426Z,7.13
2022-08-07T19:50:53.114Z,7.15
2022-08-07T19:54:31.045Z,5.95
2022-08-07T19:57:56.794Z,6.07
2022-08-07T19:59:00.102Z,9.70
2022-08-07T20:01:52.822Z,4.75
2022-08-07T20:04:31.492Z,7.20
2022-08-07T20:07:09.152Z,7.32
2022-08-07T20:10:37.643Z,9.85
2022-08-07T20:12:39.572Z,6.32
2022-08-07T20:15:18.872Z,7.32
2022-08-07T20:18:01.447Z,5.75
2022-08-07T20:20:31.698Z,5.57
2022-08-07T20:23:10.912Z,7.40
2022-08-07T20:25:50.742Z,8.30
2022-08-07T20:28:20.773Z,10.02
2022-08-07T20:30:58.635Z,13.18
2022-08-07T20:33:37.835Z,10.25
2022-08-07T20:36:07.997Z,7.43
2022-08-07T20:38:59.525Z,8.95
2022-08-07T20:41:34.137Z,7.20
2022-08-07T20:44:12.505Z,8.40
2022-08-07T20:46:43.841Z,6.18
2022-08-07T20:49:58.907Z,8.93
2022-08-07T20:52:00.669Z,5.90
2022-08-07T20:54:30.023Z,4.53
2022-08-07T20:57:08.159Z,5.25
2022-08-07T21:00:07.501Z,5.72
2022-08-07T21:03:05.831Z,5.78
2022-08-07T21:05:56.024Z,7.50
2022-08-07T21:08:38.324Z,5.38
2022-08-07T21:11:12.446Z,4.32
2022-08-07T21:14:16.325Z,5.55
2022-08-07T21:17:06.675Z,2.92
2022-08-07T21:20:00.676Z,8.75
2022-08-07T21:22:25.574Z,8.23
2022-08-07T21:25:12.227Z,9.98
2022-08-07T21:28:48.981Z,5.43
2022-08-07T21:31:50.126Z,6.43
2022-08-07T21:34:20.454Z,7.22
2022-08-07T21:37:21.467Z,5.40
2022-08-07T21:40:03.816Z,5.68
2022-08-07T21:42:56.519Z,5.78
2022-08-07T21:46:09.760Z,5.50
2022-08-07T21:48:41.454Z,6.45
2022-08-07T21:51:25.088Z,4.45
2022-08-07T21:54:03.919Z,4.75
2022-08-07T21:56:49.196Z,6.03
2022-08-07T22:00:03.992Z,4.65
2022-08-07T22:03:30.784Z,8.63
2022-08-07T22:06:30.909Z,4.63
2022-08-07T22:09:08.003Z,3.75
2022-08-07T22:12:05.275Z,3.65
2022-08-07T22:14:59.053Z,5.00
2022-08-07T22:17:35.935Z,4.35
2022-08-07T22:20:38.772Z,4.35
2022-08-07T22:23:32.619Z,5.70
2022-08-07T22:26:16.022Z,5.72
2022-08-07T22:28:59.580Z,4.40
2022-08-07T22:31:59.744Z,3.47
2022-08-07T22:34:49.809Z,5.85
2022-08-07T22:38:03.862Z,4.85
2022-08-07T22:40:41.275Z,7.13
2022-08-07T22:43:11.513Z,7.30
2022-08-07T22:46:21.140Z,6.55
2022-08-07T22:49:11.142Z,6.28
2022-08-07T22:52:10.060Z,4.32
2022-08-07T22:55:17.010Z,3.13
2022-08-07T22:57:56.624Z,7.28
2022-08-07T23:00:34.390Z,7.32
2022-08-07T23:03:24.200Z,3.85
2022-08-07T23:06:15.315Z,7.95
2022-08-07T23:10:06.339Z,3.40
2022-08-07T23:12:20.727Z,4.60
2022-08-07T23:16:04.618Z,7.65
2022-08-07T23:18:34.932Z,7.22
2022-08-07T23:21:36.717Z,8.65
2022-08-07T23:24:28.387Z,8.93
2022-08-07T23:27:12.120Z,5.78
2022-08-07T23:30:36.916Z,6.40
2022-08-07T23:34:34.699Z,5.40
2022-08-07T23:36:22.896Z,4.45
2022-08-07T23:39:12.796Z,8.75
2022-08-07T23:42:15.626Z,5.57
2022-08-07T23:44:57.814Z,4.43
2022-08-07T23:48:01.969Z,8.63
2022-08-07T23:50:33.400Z,5.10
2022-08-07T23:53:49.977Z,6.22
2022-08-07T23:56:41.774Z,6.82
